Greensburg, Indiana
Current Conditions -  °F | °C
As of 12:45 PM on Saturday 20 Dec 2014 (Local Time) from KBAK Reporting Station
Overcast Overcast  
Wind Chill: 30°   Ceiling: 1400
Heat Index: 30°   Visibility: 10mi
Dew Point: 27°   Wind: 0mph
Humidity: 86%   Direction: NA
Pressure: 30.29"   Gusts: NA
Location:  39.34°N, 85.48°W
Report Text: KBAK 201745Z 00000KT 10SM BKN014 OVC060 M01/M03 A3029
Loading
Personal Weather Stations






























Interactive Weather Map New forecast layout! Learn more

10-Day Weather Forecast

Advertisements
Track Severe Weather on mobile